createdAt,value
2023-03-19T00:00:33.906Z,21.00
2023-03-19T00:10:40.836Z,16.30
2023-03-19T00:20:47.424Z,15.80
2023-03-19T00:30:53.956Z,14.00
2023-03-19T00:41:00.257Z,14.40
2023-03-19T00:51:09.116Z,15.60
2023-03-19T01:01:18.175Z,14.60
2023-03-19T01:11:24.581Z,13.40
2023-03-19T01:21:32.465Z,13.00
2023-03-19T01:31:38.851Z,26.90
2023-03-19T01:41:45.211Z,18.80
2023-03-19T01:51:52.549Z,28.90
2023-03-19T02:02:08.973Z,27.90
2023-03-19T02:12:15.377Z,30.70
2023-03-19T02:22:24.381Z,54.20
2023-03-19T02:32:30.725Z,40.00
2023-03-19T02:42:37.019Z,34.70
2023-03-19T02:52:43.309Z,38.30
2023-03-19T03:02:49.665Z,49.40
2023-03-19T03:12:56.042Z,40.00
2023-03-19T03:23:02.303Z,42.20
2023-03-19T03:33:08.708Z,41.70
2023-03-19T03:43:15.500Z,41.40
2023-03-19T03:53:22.644Z,42.20
2023-03-19T04:03:29.151Z,43.90
2023-03-19T04:13:38.033Z,43.60
2023-03-19T04:23:44.404Z,45.30
2023-03-19T04:33:50.954Z,48.20
2023-03-19T04:43:57.561Z,56.00
2023-03-19T04:54:03.959Z,45.30
2023-03-19T05:04:10.884Z,46.20
2023-03-19T05:14:17.210Z,47.70
2023-03-19T05:24:23.492Z,44.70
2023-03-19T05:34:30.594Z,47.00
2023-03-19T05:44:36.972Z,45.20
2023-03-19T05:54:43.543Z,40.00
2023-03-19T06:04:49.835Z,37.80
2023-03-19T06:14:56.231Z,35.90
2023-03-19T06:25:02.588Z,38.80
2023-03-19T06:35:09.897Z,38.00
2023-03-19T06:45:17.699Z,37.70
2023-03-19T06:55:24.069Z,35.50
2023-03-19T07:05:30.450Z,35.50
2023-03-19T07:15:37.826Z,33.80
2023-03-19T07:25:44.552Z,34.20
2023-03-19T07:35:50.997Z,31.20
2023-03-19T07:45:57.380Z,31.00
2023-03-19T07:56:03.728Z,30.90
2023-03-19T08:06:10.053Z,30.40
2023-03-19T08:16:16.384Z,30.20
2023-03-19T08:26:22.709Z,27.60
2023-03-19T08:36:29.081Z,20.70
2023-03-19T08:46:35.519Z,11.60
2023-03-19T08:56:42.119Z,11.00
2023-03-19T09:06:52.341Z,10.70
2023-03-19T09:16:58.680Z,9.90
2023-03-19T09:27:05.387Z,8.80
2023-03-19T09:37:12.947Z,8.40
2023-03-19T09:47:36.036Z,9.30
2023-03-19T09:57:42.388Z,8.60
2023-03-19T10:08:22.480Z,8.70
2023-03-19T10:18:32.525Z,8.60
2023-03-19T10:28:39.811Z,8.80
2023-03-19T10:38:46.215Z,8.20
2023-03-19T10:48:52.521Z,7.70
2023-03-19T10:59:06.918Z,7.90
2023-03-19T11:09:21.445Z,7.25
2023-03-19T11:19:33.270Z,7.20
2023-03-19T11:29:43.383Z,7.20
2023-03-19T11:39:55.637Z,7.10
2023-03-19T11:50:39.552Z,7.50
2023-03-19T12:00:51.998Z,7.10
2023-03-19T12:11:23.292Z,7.60
2023-03-19T12:21:57.332Z,7.40
2023-03-19T12:32:12.850Z,7.40
2023-03-19T12:42:21.341Z,7.60
2023-03-19T12:52:37.240Z,7.80
2023-03-19T13:02:55.289Z,7.40
2023-03-19T13:13:04.921Z,7.60
2023-03-19T13:23:14.887Z,7.30
2023-03-19T13:33:24.097Z,8.40
2023-03-19T13:43:30.295Z,7.90
2023-03-19T13:53:39.979Z,8.30
2023-03-19T14:03:59.666Z,9.10
2023-03-19T14:14:08.467Z,10.40
2023-03-19T14:24:55.690Z,8.90
2023-03-19T14:34:59.341Z,9.80
2023-03-19T14:45:14.865Z,10.70
2023-03-19T14:55:21.487Z,9.70
2023-03-19T15:05:37.596Z,9.60
2023-03-19T15:16:08.581Z,10.10
2023-03-19T15:26:15.092Z,9.40
2023-03-19T15:36:33.352Z,19.50
2023-03-19T15:46:42.175Z,10.00
2023-03-19T15:56:50.874Z,9.20
2023-03-19T16:06:59.615Z,10.60
2023-03-19T16:17:17.231Z,9.50
2023-03-19T16:27:37.186Z,9.40
2023-03-19T16:37:48.428Z,8.80
2023-03-19T17:05:58.624Z,13.40
